Woodbridge, CT (06525)

3:48 AM EST on February 10, 2016 (GMT -0500)
KCTWOODB4 | | Change Station
CLOSE
Current Station
Personal Weather Station
Location: Woodbridge, CT
Elevation: 246 ft
Nearby Weather Stations
Active Advisory: Special Statement

Elev 246 ft 41.34 °N, 73.02 °W | Updated 12 minutes ago

Overcast
Overcast
27.8 °F
Feels Like 28 °F
N
0.0
Wind Variable Wind from East

Today
High -- | Low -- °F
--% Chance of Precip.
Yesterday
High -- | Low -- °F
Precip. -- in
Pressure 29.59 in
Visibility 7.0 miles
Clouds Mostly Cloudy 4200 ft
Mostly Cloudy 6000 ft
Overcast 7000 ft
Windchill 28 °F
Dew Point 24 °F
Humidity 86%
Rainfall 0.00 in
Snow Depth Not available.
6:53 AM 5:19 PM
Waxing Crescent, 4% visible
METAR KHVN 100753Z AUTO 00000KT 7SM BKN042 BKN060 OVC070 M03/M05 A2959 RMK AO2 SLP019 T10331050
Pressure 29.59 in
Visibility 7.0 miles
Clouds Mostly Cloudy 4200 ft
Mostly Cloudy 6000 ft
Overcast 7000 ft
Windchill 28 °F
Dew Point 24 °F
Humidity 86%
Rainfall 0.00 in
Snow Depth Not available.
6:53 AM 5:19 PM
Waxing Crescent, 4% visible
METAR KHVN 100753Z AUTO 00000KT 7SM BKN042 BKN060 OVC070 M03/M05 A2959 RMK AO2 SLP019 T10331050

10-Day Weather Forecast

Almanac

Astronomy

Feb. 10, 2016 Rise Set
Actual Time
Civil Twilight
Nautical Twilight
Astronomical Twilight
Moon
Length of Visible Light
Length of Day
Tomorrow will be .
, % of the Moon is Illuminated

Today's Extremes

State Highs State Lows

Community

WunderPhotos

Upload Photos

1,891,826 photos uploaded!

WunderBlog® & News

Nearby

Air Quality

  Air Quality AQ Index Pollutant
Not available.

Snow Depth

Station Depth Elevation

Earthquake Activity

City Distance Mag. Time & Date
Minimum magnitude displayed is 2.5.

Coastal Water Temperatures

Place Temperature

Stations

Nearby Weather Stations

Station Location Temp. Windchill Dew Point Humidity Wind Precip. Elev Updated Type
                   

Watches & Warnings

Special Statement
Issued: 3:27 AM EST Feb. 10, 2016 – National Weather Service

... Snow this morning...

A steady light snow will fall through sunrise and into the morning
rush. Although snowfall rates will be low... the snow will stick to
roads and walkways... particularly those that are untreated...
resulting in slippery conditions. Extra caution should be used if
traveling this morning.


Jmc


327 am EST Wed Feb 10 2016

... Snow this morning...

A steady light snow will fall through sunrise and into the morning
rush. Although snowfall rates will be low... the snow will stick to
roads and walkways... particularly those that are untreated...
resulting in slippery conditions. Extra caution should be used if
traveling this morning.


Jmc